Time;durP1;ratioP1;P1;durP2;ratioP2;P2;SDS_P1;SDS_P2;PMS_P1;PMS_P2;Temp;Humidity;BMP_temperature;BMP_pressure;BME280_temperature;BME280_humidity;BME280_pressure;Samples;Min_cycle;Max_cycle;Signal;HPM_P1;HPM_P2
2023/12/21 00:01:46;;;;;;;1.35;0.50;;;5.90;99.90;;;;;;5068614;28;20035;-69
2023/12/21 00:04:11;;;;;;;2.70;0.40;;;5.90;99.90;;;;;;5060054;28;20029;-69
2023/12/21 00:06:37;;;;;;;1.13;0.40;;;5.80;99.90;;;;;;5055491;28;20025;-69
2023/12/21 00:09:06;;;;;;;2.38;0.50;;;5.90;99.90;;;;;;5055203;28;20464;-69
2023/12/21 00:11:31;;;;;;;2.63;0.70;;;5.90;99.90;;;;;;5056493;28;20021;-69
2023/12/21 00:13:59;;;;;;;0.73;0.20;;;5.90;99.90;;;;;;5056383;28;20392;-69
2023/12/21 00:16:24;;;;;;;2.17;0.43;;;5.90;99.90;;;;;;5056399;28;20047;-69
2023/12/21 00:18:50;;;;;;;3.28;0.52;;;6.00;99.90;;;;;;5056475;28;20104;-69
2023/12/21 00:21:16;;;;;;;1.38;0.30;;;6.00;99.90;;;;;;5056328;28;20373;-69
2023/12/21 00:23:41;;;;;;;1.73;0.60;;;6.00;99.90;;;;;;5056346;28;20104;-69
2023/12/21 00:26:07;;;;;;;1.38;0.47;;;6.00;99.90;;;;;;5054692;28;20088;-69
2023/12/21 00:28:32;;;;;;;1.15;0.30;;;6.00;99.90;;;;;;5056248;28;20025;-69
2023/12/21 00:30:58;;;;;;;0.75;0.40;;;6.00;99.90;;;;;;5054634;28;20124;-69
2023/12/21 00:33:24;;;;;;;1.67;0.50;;;6.00;99.90;;;;;;5056064;28;20064;-69
2023/12/21 00:35:49;;;;;;;1.40;0.20;;;6.00;99.90;;;;;;5054804;28;20407;-69
2023/12/21 00:38:15;;;;;;;0.38;0.30;;;6.00;99.90;;;;;;5056063;28;20021;-70
2023/12/21 00:40:40;;;;;;;1.38;0.15;;;6.00;99.90;;;;;;5054719;28;20433;-70
2023/12/21 00:43:06;;;;;;;2.05;0.30;;;6.00;99.90;;;;;;5054709;28;20033;-70
2023/12/21 00:45:32;;;;;;;1.13;0.20;;;6.00;99.90;;;;;;5054550;28;20032;-69
2023/12/21 00:47:57;;;;;;;1.95;0.20;;;6.00;99.90;;;;;;5054587;28;20025;-69
2023/12/21 00:50:23;;;;;;;0.30;0.10;;;6.00;99.90;;;;;;5055765;28;20100;-69
2023/12/21 00:52:48;;;;;;;3.30;0.43;;;6.00;99.90;;;;;;5055639;28;20056;-69
2023/12/21 00:55:14;;;;;;;2.00;0.50;;;6.00;99.90;;;;;;5055653;28;20025;-69
2023/12/21 00:57:40;;;;;;;0.43;0.30;;;6.00;99.90;;;;;;5055357;28;20029;-69
2023/12/21 01:00:06;;;;;;;0.38;0.38;;;6.00;99.90;;;;;;5055327;28;20492;-69
2023/12/21 01:02:31;;;;;;;2.70;0.95;;;6.00;99.90;;;;;;5055688;28;20048;-69
2023/12/21 01:04:57;;;;;;;0.22;0.20;;;6.00;99.90;;;;;;5055532;28;20025;-69
2023/12/21 01:07:23;;;;;;;1.20;0.30;;;6.00;99.90;;;;;;5054257;28;20514;-69
2023/12/21 01:09:48;;;;;;;1.13;0.45;;;6.00;99.90;;;;;;5054043;28;20025;-70
2023/12/21 01:12:14;;;;;;;4.38;0.50;;;5.90;99.90;;;;;;5055394;28;20028;-69
2023/12/21 01:14:41;;;;;;;1.92;0.30;;;5.90;99.90;;;;;;5053283;28;20029;-69
2023/12/21 01:17:06;;;;;;;1.17;0.20;;;5.90;99.90;;;;;;5053455;28;20029;-70
2023/12/21 01:19:32;;;;;;;2.05;0.40;;;5.90;99.90;;;;;;5055147;28;20039;-69
2023/12/21 01:21:57;;;;;;;0.47;0.30;;;5.90;99.90;;;;;;5055143;28;20039;-69
2023/12/21 01:24:23;;;;;;;0.95;0.38;;;5.90;99.90;;;;;;5054778;28;20350;-69
2023/12/21 01:26:49;;;;;;;0.50;0.40;;;5.80;99.90;;;;;;5054816;28;20082;-69
2023/12/21 01:29:14;;;;;;;1.95;0.60;;;5.80;99.90;;;;;;5053777;28;20024;-69
2023/12/21 01:31:40;;;;;;;1.23;0.32;;;5.70;99.90;;;;;;5053988;28;20034;-69
2023/12/21 01:34:06;;;;;;;0.50;0.40;;;5.80;99.90;;;;;;5055001;28;20082;-69
2023/12/21 01:36:31;;;;;;;0.90;0.30;;;5.80;99.90;;;;;;5055036;28;20451;-69
2023/12/21 01:38:57;;;;;;;2.08;0.35;;;5.70;99.90;;;;;;5053763;28;20048;-69
2023/12/21 01:41:24;;;;;;;1.05;0.25;;;5.70;99.90;;;;;;5054907;28;20024;-69
2023/12/21 01:43:50;;;;;;;1.25;0.50;;;5.70;99.90;;;;;;5054771;28;20055;-69
2023/12/21 01:46:16;;;;;;;0.88;0.40;;;5.70;99.90;;;;;;5054717;28;20036;-69
2023/12/21 01:48:42;;;;;;;0.98;0.50;;;5.60;99.90;;;;;;5053319;28;20039;-70
2023/12/21 01:51:09;;;;;;;1.42;0.40;;;5.60;99.90;;;;;;5054609;28;20060;-69
2023/12/21 01:53:36;;;;;;;0.85;0.30;;;5.60;99.90;;;;;;5053246;28;20507;-70
2023/12/21 01:56:03;;;;;;;3.65;0.30;;;5.50;99.90;;;;;;5055230;28;20061;-69
2023/12/21 01:58:31;;;;;;;0.40;0.40;;;5.60;99.90;;;;;;5054481;28;20028;-69
2023/12/21 02:00:58;;;;;;;2.88;0.30;;;5.60;99.90;;;;;;5054639;28;20083;-69
2023/12/21 02:03:27;;;;;;;1.88;0.40;;;5.70;99.90;;;;;;5053165;28;20037;-69
2023/12/21 02:05:53;;;;;;;3.22;0.22;;;5.60;99.90;;;;;;5053383;28;20021;-70
2023/12/21 02:08:19;;;;;;;1.13;0.32;;;5.60;99.90;;;;;;5053258;28;20178;-69
2023/12/21 02:10:46;;;;;;;3.42;0.50;;;5.70;99.90;;;;;;5053193;28;20533;-70
2023/12/21 02:13:12;;;;;;;1.50;0.20;;;5.70;99.90;;;;;;5052986;28;20036;-69
2023/12/21 02:15:37;;;;;;;0.40;0.10;;;5.70;99.90;;;;;;5054274;28;20036;-69
2023/12/21 02:18:07;;;;;;;2.35;0.32;;;5.70;99.90;;;;;;5054366;28;20484;-69
2023/12/21 02:20:33;;;;;;;1.33;0.38;;;5.70;99.90;;;;;;5054223;28;20525;-69
2023/12/21 02:23:03;;;;;;;0.55;0.40;;;5.70;99.90;;;;;;5053036;28;20036;-69
2023/12/21 02:25:30;;;;;;;1.73;0.30;;;5.70;99.90;;;;;;5053104;28;20029;-69
2023/12/21 02:27:56;;;;;;;2.40;0.30;;;5.70;99.90;;;;;;5053917;28;20031;-69
2023/12/21 02:30:22;;;;;;;1.48;0.65;;;5.70;99.90;;;;;;5054103;28;20108;-70
2023/12/21 02:32:47;;;;;;;0.73;0.20;;;5.80;99.90;;;;;;5053958;28;20039;-69
2023/12/21 02:35:15;;;;;;;1.50;0.32;;;5.80;99.90;;;;;;5052782;28;20029;-69
2023/12/21 02:37:40;;;;;;;1.13;0.20;;;5.80;99.90;;;;;;5052739;28;20093;-69
2023/12/21 02:40:06;;;;;;;1.17;0.20;;;5.80;99.90;;;;;;5053659;28;20100;-70
2023/12/21 02:42:32;;;;;;;0.28;0.20;;;5.80;99.90;;;;;;5052564;28;20139;-70
2023/12/21 02:44:57;;;;;;;0.88;0.30;;;5.80;99.90;;;;;;5052684;28;20029;-69
2023/12/21 02:47:23;;;;;;;1.55;0.10;;;5.80;99.90;;;;;;5053485;28;20033;-69
2023/12/21 02:49:48;;;;;;;1.77;0.22;;;5.90;99.90;;;;;;5052694;28;20033;-69
2023/12/21 02:52:14;;;;;;;2.92;0.28;;;5.90;99.90;;;;;;5053459;28;20110;-69
2023/12/21 02:54:40;;;;;;;1.40;0.05;;;6.00;99.90;;;;;;5052725;28;20032;-69
2023/12/21 02:57:05;;;;;;;1.65;0.20;;;6.00;99.90;;;;;;5052446;28;20021;-69
2023/12/21 02:59:31;;;;;;;0.13;0.10;;;6.00;99.90;;;;;;5053327;28;20432;-69
2023/12/21 03:01:56;;;;;;;0.98;0.25;;;6.10;99.90;;;;;;5053943;28;20072;-69
2023/12/21 03:04:22;;;;;;;1.15;0.10;;;6.10;99.90;;;;;;5052321;28;20059;-69
2023/12/21 03:06:48;;;;;;;0.75;0.28;;;6.20;99.90;;;;;;5054083;28;20025;-69
2023/12/21 03:09:13;;;;;;;0.98;0.25;;;6.10;99.90;;;;;;5052748;28;20028;-69
2023/12/21 03:11:39;;;;;;;0.63;0.20;;;6.10;99.90;;;;;;5053155;28;20021;-69
2023/12/21 03:14:04;;;;;;;1.63;0.10;;;6.10;99.90;;;;;;5052805;28;20075;-69
2023/12/21 03:16:30;;;;;;;1.13;0.30;;;6.20;99.90;;;;;;5052503;28;20481;-69
2023/12/21 03:18:56;;;;;;;0.47;0.47;;;6.20;99.90;;;;;;5052320;28;20025;-69
2023/12/21 03:21:21;;;;;;;2.47;0.22;;;6.20;99.90;;;;;;5052743;28;20036;-69
2023/12/21 03:23:47;;;;;;;2.35;0.25;;;6.10;99.90;;;;;;5052691;28;20392;-69
2023/12/21 03:26:13;;;;;;;0.35;0.10;;;6.10;99.90;;;;;;5053513;28;20029;-69
2023/12/21 03:28:44;;;;;;;0.00;0.00;;;6.10;99.90;;;;;;5053675;28;20053;-69
2023/12/21 03:31:10;;;;;;;2.25;0.17;;;6.10;99.90;;;;;;5052318;28;20082;-69
2023/12/21 03:33:36;;;;;;;0.30;0.10;;;6.10;99.90;;;;;;5053276;28;20373;-69
2023/12/21 03:36:03;;;;;;;2.10;0.20;;;6.10;99.90;;;;;;5053257;28;20029;-69
2023/12/21 03:38:28;;;;;;;1.10;0.10;;;6.10;99.90;;;;;;5053575;28;20104;-69
2023/12/21 03:40:54;;;;;;;0.40;0.20;;;6.10;99.90;;;;;;5057136;28;20476;-69
2023/12/21 03:43:20;;;;;;;0.45;0.10;;;6.20;99.90;;;;;;5055738;28;20031;-69
2023/12/21 03:45:46;;;;;;;0.28;0.15;;;6.20;99.90;;;;;;5057176;28;20064;-69
2023/12/21 03:48:11;;;;;;;0.30;0.10;;;6.20;99.90;;;;;;5056139;28;20053;-69
2023/12/21 03:50:37;;;;;;;0.20;0.10;;;6.20;99.90;;;;;;5058820;28;20417;-70
2023/12/21 03:53:03;;;;;;;2.30;0.10;;;6.20;99.90;;;;;;5057722;28;20056;-70
2023/12/21 03:55:29;;;;;;;0.85;0.10;;;6.10;99.90;;;;;;5058592;28;20117;-69
2023/12/21 03:57:56;;;;;;;1.48;0.10;;;6.10;99.90;;;;;;5059699;28;20056;-73
2023/12/21 04:00:22;;;;;;;0.95;0.10;;;6.10;99.90;;;;;;5059897;28;20033;-70
2023/12/21 04:02:48;;;;;;;0.68;0.17;;;6.10;99.90;;;;;;5060113;28;20101;-70
2023/12/21 04:05:14;;;;;;;1.90;0.20;;;6.10;99.90;;;;;;5061836;28;20422;-70
2023/12/21 04:07:40;;;;;;;0.88;0.10;;;6.10;99.90;;;;;;5061588;28;20386;-69
2023/12/21 04:10:06;;;;;;;0.22;0.10;;;6.00;99.90;;;;;;5062569;28;20032;-70
2023/12/21 04:12:32;;;;;;;0.38;0.20;;;6.00;99.90;;;;;;5059452;28;20033;-70
2023/12/21 04:14:58;;;;;;;1.75;0.22;;;6.00;99.90;;;;;;5056949;28;20021;-69
2023/12/21 04:17:23;;;;;;;1.15;0.10;;;6.00;99.90;;;;;;5056743;28;20045;-69
2023/12/21 04:19:49;;;;;;;0.80;0.10;;;6.10;99.90;;;;;;5056075;28;20029;-69
2023/12/21 04:22:14;;;;;;;0.10;0.10;;;6.10;99.90;;;;;;5056576;28;20040;-69
2023/12/21 04:24:44;;;;;;;0.25;0.10;;;6.20;99.90;;;;;;5056277;28;20031;-69
2023/12/21 04:27:10;;;;;;;1.20;0.15;;;6.10;99.90;;;;;;5056612;28;20029;-69
2023/12/21 04:29:37;;;;;;;2.25;0.13;;;6.20;99.90;;;;;;5055371;28;20040;-69
2023/12/21 04:32:04;;;;;;;1.63;0.15;;;6.20;99.90;;;;;;5054905;28;20033;-69
2023/12/21 04:34:29;;;;;;;0.50;0.10;;;6.30;99.90;;;;;;5055940;28;20047;-69
2023/12/21 04:36:55;;;;;;;2.20;0.32;;;6.30;99.90;;;;;;5054758;28;20477;-69
2023/12/21 04:39:21;;;;;;;0.95;0.10;;;6.40;99.90;;;;;;5055850;28;20021;-69
2023/12/21 04:41:46;;;;;;;0.77;0.55;;;6.40;99.90;;;;;;5054682;28;20469;-69
2023/12/21 04:44:12;;;;;;;0.45;0.20;;;6.40;99.90;;;;;;5055915;28;20113;-69
2023/12/21 04:46:37;;;;;;;1.58;0.28;;;6.50;99.90;;;;;;5055608;28;20099;-69
2023/12/21 04:49:03;;;;;;;0.45;0.20;;;6.60;99.90;;;;;;5054609;28;20068;-69
2023/12/21 04:51:29;;;;;;;0.73;0.10;;;6.60;99.90;;;;;;5055455;28;20029;-70
2023/12/21 04:53:54;;;;;;;4.25;0.25;;;6.60;99.90;;;;;;5055579;28;20112;-69
2023/12/21 04:56:20;;;;;;;0.10;0.00;;;6.60;99.90;;;;;;5055434;28;20028;-69
2023/12/21 04:58:45;;;;;;;0.50;0.10;;;6.60;99.90;;;;;;5055643;28;20028;-69
2023/12/21 05:01:11;;;;;;;1.17;0.03;;;6.60;99.90;;;;;;5055844;28;20025;-69
2023/12/21 05:03:37;;;;;;;0.20;0.13;;;6.80;99.90;;;;;;5055846;28;20453;-69
2023/12/21 05:06:02;;;;;;;1.30;0.10;;;6.80;99.90;;;;;;5055950;28;20087;-69
2023/12/21 05:08:28;;;;;;;0.20;0.00;;;6.80;99.90;;;;;;5054801;28;20021;-68
2023/12/21 05:10:55;;;;;;;1.55;0.15;;;6.80;99.90;;;;;;5055754;28;20373;-68
2023/12/21 05:13:21;;;;;;;2.50;0.45;;;6.80;99.90;;;;;;5054103;28;20065;-68
2023/12/21 05:15:46;;;;;;;0.20;0.17;;;6.80;99.90;;;;;;5054075;28;20029;-70
2023/12/21 05:18:12;;;;;;;0.32;0.10;;;6.70;99.90;;;;;;5055345;28;20556;-70
2023/12/21 05:20:38;;;;;;;0.77;0.20;;;6.80;99.90;;;;;;5054987;28;20025;-70
2023/12/21 05:23:04;;;;;;;0.52;0.20;;;6.80;99.90;;;;;;5055250;28;20033;-70
2023/12/21 05:25:29;;;;;;;2.97;0.10;;;6.80;99.90;;;;;;5055396;28;20036;-70
2023/12/21 05:27:55;;;;;;;1.92;0.10;;;6.80;99.90;;;;;;5053827;28;20032;-75
2023/12/21 05:30:21;;;;;;;0.10;0.10;;;6.90;99.90;;;;;;5056131;28;20047;-71
2023/12/21 05:32:47;;;;;;;1.08;0.00;;;6.90;99.90;;;;;;5053318;28;20036;-67
2023/12/21 05:35:13;;;;;;;0.10;0.10;;;6.90;99.90;;;;;;5054486;28;20110;-66
2023/12/21 05:37:39;;;;;;;0.10;0.03;;;7.00;99.90;;;;;;5054912;28;20111;-65
2023/12/21 05:40:06;;;;;;;0.00;0.00;;;7.00;99.90;;;;;;5054244;28;20504;-67
2023/12/21 05:42:31;;;;;;;0.25;0.00;;;7.00;99.90;;;;;;5054878;28;20115;-67
2023/12/21 05:44:57;;;;;;;0.65;0.28;;;7.10;99.90;;;;;;5053686;28;20119;-67
2023/12/21 05:47:23;;;;;;;0.28;0.10;;;7.10;99.90;;;;;;5053518;28;20130;-68
2023/12/21 05:49:48;;;;;;;0.00;0.00;;;7.20;99.90;;;;;;5053834;28;20536;-67
2023/12/21 05:52:14;;;;;;;0.50;0.10;;;7.20;99.90;;;;;;5054346;28;20132;-67
2023/12/21 05:54:40;;;;;;;1.85;0.20;;;7.20;99.90;;;;;;5053243;28;20039;-68
2023/12/21 05:57:05;;;;;;;0.20;0.00;;;7.20;99.90;;;;;;5053363;28;20472;-68
2023/12/21 05:59:31;;;;;;;0.10;0.00;;;7.30;99.90;;;;;;5054454;28;20380;-68
2023/12/21 06:01:56;;;;;;;1.02;0.10;;;7.30;99.90;;;;;;5052645;28;20079;-68
2023/12/21 06:04:22;;;;;;;0.73;0.00;;;7.30;99.90;;;;;;5054391;28;20468;-67
2023/12/21 06:06:48;;;;;;;1.17;0.00;;;7.30;99.90;;;;;;5054393;28;20032;-67
2023/12/21 06:09:14;;;;;;;0.82;0.00;;;7.30;99.90;;;;;;5054456;28;20353;-68
2023/12/21 06:11:40;;;;;;;0.20;0.10;;;7.30;99.90;;;;;;5053398;28;20025;-68
2023/12/21 06:14:06;;;;;;;0.32;0.13;;;7.30;99.90;;;;;;5053275;28;20564;-68
2023/12/21 06:16:32;;;;;;;1.63;0.10;;;7.30;99.90;;;;;;5053309;28;20057;-70
2023/12/21 06:18:59;;;;;;;0.75;0.20;;;7.30;99.90;;;;;;5052828;28;20032;-68
2023/12/21 06:21:25;;;;;;;0.55;0.10;;;7.40;99.90;;;;;;5054551;28;20051;-68
2023/12/21 06:23:51;;;;;;;0.85;0.10;;;7.40;99.90;;;;;;5055063;28;20473;-68
2023/12/21 06:26:16;;;;;;;0.13;0.00;;;7.40;99.90;;;;;;5054250;28;20021;-68
2023/12/21 06:28:42;;;;;;;0.40;0.05;;;7.40;99.90;;;;;;5054323;28;20039;-68
2023/12/21 06:31:09;;;;;;;1.45;0.05;;;7.40;99.90;;;;;;5053081;28;20029;-68
2023/12/21 06:33:34;;;;;;;0.00;0.00;;;7.40;99.90;;;;;;5053312;28;20033;-67
2023/12/21 06:36:00;;;;;;;0.38;0.10;;;7.50;99.90;;;;;;5053969;28;20469;-68
2023/12/21 06:38:25;;;;;;;1.58;0.10;;;7.50;99.90;;;;;;5054383;28;20401;-67
2023/12/21 06:40:52;;;;;;;1.25;0.17;;;7.50;99.90;;;;;;5052750;28;20025;-68
2023/12/21 06:43:19;;;;;;;0.40;0.00;;;7.50;99.90;;;;;;5052608;28;20036;-68
2023/12/21 06:45:47;;;;;;;0.98;0.10;;;7.50;99.90;;;;;;5054270;28;20021;-68
2023/12/21 06:48:13;;;;;;;0.28;0.00;;;7.40;99.90;;;;;;5054025;28;20060;-67
2023/12/21 06:50:39;;;;;;;0.03;0.03;;;7.40;99.90;;;;;;5053825;28;20028;-67
2023/12/21 06:53:05;;;;;;;1.38;0.10;;;7.40;99.90;;;;;;5053928;28;20051;-68
2023/12/21 06:55:30;;;;;;;0.10;0.03;;;7.30;99.90;;;;;;5053712;28;20369;-67
2023/12/21 06:57:56;;;;;;;0.70;0.10;;;7.30;99.90;;;;;;5052902;28;20021;-68
2023/12/21 07:00:22;;;;;;;0.50;0.00;;;7.30;99.90;;;;;;5049280;28;20639;-67
2023/12/21 07:02:48;;;;;;;0.15;0.00;;;7.30;99.90;;;;;;5033656;28;20112;-67
2023/12/21 07:05:14;;;;;;;1.08;0.00;;;7.30;99.90;;;;;;5033717;28;20120;-66
2023/12/21 07:07:39;;;;;;;0.10;0.10;;;7.30;99.90;;;;;;5083408;28;20029;-66
2023/12/21 07:10:06;;;;;;;0.08;0.00;;;7.20;99.90;;;;;;5052273;28;20375;-66
2023/12/21 07:12:32;;;;;;;0.00;0.00;;;7.20;99.90;;;;;;5053263;28;20057;-66
2023/12/21 07:14:57;;;;;;;0.00;0.00;;;7.30;99.90;;;;;;5055883;28;20106;-65
2023/12/21 07:17:23;;;;;;;0.30;0.03;;;7.30;99.90;;;;;;5057411;28;20021;-66
2023/12/21 07:19:48;;;;;;;0.25;0.00;;;7.40;99.90;;;;;;5039916;28;20033;-66
2023/12/21 07:22:14;;;;;;;0.00;0.00;;;7.40;99.90;;;;;;5037253;28;20029;-66
2023/12/21 07:24:40;;;;;;;2.08;0.20;;;7.50;99.90;;;;;;5036239;28;20026;-66
2023/12/21 07:27:05;;;;;;;0.20;0.08;;;7.50;99.90;;;;;;5036196;28;20026;-66
2023/12/21 07:29:31;;;;;;;0.08;0.00;;;7.40;99.90;;;;;;5036196;28;20056;-65
2023/12/21 07:31:56;;;;;;;1.00;0.10;;;7.40;99.90;;;;;;5037239;28;20079;-65
2023/12/21 07:34:22;;;;;;;3.22;0.10;;;7.50;99.90;;;;;;5037799;28;20113;-67
2023/12/21 07:36:47;;;;;;;3.50;0.00;;;7.50;99.90;;;;;;5037271;28;20022;-67
2023/12/21 07:39:22;;;;;;;0.10;0.00;;;7.50;99.90;;;;;;5035936;28;20474;-67
2023/12/21 07:41:48;;;;;;;0.55;0.13;;;7.60;99.90;;;;;;5036095;28;20029;-67
2023/12/21 07:44:13;;;;;;;0.13;0.00;;;7.60;99.90;;;;;;5036905;28;20036;-67
2023/12/21 07:46:39;;;;;;;0.95;0.17;;;7.60;99.90;;;;;;5035827;28;20026;-67
2023/12/21 07:49:05;;;;;;;0.08;0.00;;;7.60;99.90;;;;;;5045317;28;20025;-62
2023/12/21 07:51:30;;;;;;;0.63;0.00;;;7.90;99.90;;;;;;5055521;28;20071;-63
2023/12/21 07:53:56;;;;;;;0.70;0.00;;;8.20;99.90;;;;;;5057451;28;20064;-63
2023/12/21 07:56:21;;;;;;;0.00;0.00;;;8.50;99.90;;;;;;5055632;28;20048;-63
2023/12/21 07:58:47;;;;;;;0.10;0.00;;;8.50;99.90;;;;;;5056776;28;20453;-63
2023/12/21 08:01:12;;;;;;;1.35;0.00;;;8.60;99.90;;;;;;5056743;28;20432;-63
2023/12/21 08:03:38;;;;;;;0.38;0.22;;;8.80;99.90;;;;;;5056679;28;20024;-63
2023/12/21 08:06:04;;;;;;;0.25;0.10;;;8.70;99.90;;;;;;5056732;28;20033;-63
2023/12/21 08:08:30;;;;;;;0.00;0.00;;;8.50;99.90;;;;;;5055719;28;20090;-63
2023/12/21 08:10:56;;;;;;;2.83;0.03;;;8.60;99.90;;;;;;5056319;28;20472;-63
2023/12/21 08:13:22;;;;;;;0.38;0.17;;;8.50;99.90;;;;;;5056409;28;20048;-62
2023/12/21 08:15:48;;;;;;;0.30;0.10;;;8.30;99.90;;;;;;5056485;28;20025;-63
2023/12/21 08:18:13;;;;;;;0.15;0.00;;;8.20;99.90;;;;;;5056238;28;20036;-70
2023/12/21 08:20:42;;;;;;;1.25;0.00;;;7.90;99.90;;;;;;5056547;28;20067;-69
2023/12/21 08:23:08;;;;;;;0.98;0.00;;;7.50;99.90;;;;;;5056408;28;20028;-69
2023/12/21 08:25:34;;;;;;;0.32;0.20;;;7.30;99.90;;;;;;5055828;28;20025;-67
2023/12/21 08:27:59;;;;;;;1.45;0.10;;;7.20;99.90;;;;;;5056265;28;20536;-66
2023/12/21 08:30:25;;;;;;;1.25;0.75;;;7.10;99.90;;;;;;5056177;28;20032;-69
2023/12/21 08:32:51;;;;;;;0.10;0.10;;;7.00;99.90;;;;;;5056297;28;20473;-68
2023/12/21 08:35:17;;;;;;;0.70;0.20;;;7.00;99.90;;;;;;5056116;28;20032;-68
2023/12/21 08:37:43;;;;;;;5.72;0.20;;;6.90;99.90;;;;;;5054820;28;20029;-68
2023/12/21 08:40:10;;;;;;;0.50;0.10;;;6.90;99.90;;;;;;5054772;28;20384;-68
2023/12/21 08:42:36;;;;;;;0.95;0.10;;;7.00;99.90;;;;;;5056204;28;20025;-68
2023/12/21 08:45:05;;;;;;;0.10;0.10;;;7.00;99.90;;;;;;5055777;28;20021;-67
2023/12/21 08:47:32;;;;;;;;;;;7.00;99.90;;;;;;5055035;28;20029;-67
2023/12/21 08:50:03;;;;;;;0.40;0.00;;;7.00;99.90;;;;;;5054680;28;20007;-68
2023/12/21 08:52:29;;;;;;;1.60;0.00;;;7.00;99.90;;;;;;5056008;28;20053;-68
2023/12/21 08:54:54;;;;;;;0.80;0.10;;;7.00;99.90;;;;;;5055801;28;20526;-68
2023/12/21 08:57:22;;;;;;;0.82;0.30;;;7.00;99.90;;;;;;5055554;28;20021;-68
2023/12/21 08:59:48;;;;;;;0.25;0.10;;;7.00;99.90;;;;;;5055941;28;20025;-68
2023/12/21 09:02:14;;;;;;;0.85;0.00;;;7.00;99.90;;;;;;5055911;28;20043;-75
2023/12/21 09:04:40;;;;;;;0.38;0.03;;;7.00;99.90;;;;;;5054372;28;20028;-62
2023/12/21 09:07:05;;;;;;;0.10;0.00;;;7.40;99.90;;;;;;5054300;28;20033;-62
2023/12/21 09:09:31;;;;;;;1.45;0.10;;;7.70;99.90;;;;;;5055521;28;20441;-66
2023/12/21 09:11:57;;;;;;;0.10;0.10;;;7.70;99.90;;;;;;5055379;28;20033;-65
2023/12/21 09:14:24;;;;;;;1.95;0.00;;;7.50;99.90;;;;;;5055390;28;20040;-65
2023/12/21 09:16:51;;;;;;;1.98;0.10;;;7.50;99.90;;;;;;5055328;28;20025;-65
2023/12/21 09:19:17;;;;;;;1.80;0.00;;;7.50;99.90;;;;;;5055173;28;20025;-65
2023/12/21 09:21:43;;;;;;;0.75;0.00;;;7.60;99.90;;;;;;5055829;28;20037;-65
2023/12/21 09:24:08;;;;;;;0.75;0.10;;;7.60;99.90;;;;;;5053949;28;20036;-65
2023/12/21 09:26:34;;;;;;;0.00;0.00;;;7.70;99.90;;;;;;5054954;28;20025;-65
2023/12/21 09:29:03;;;;;;;1.48;0.00;;;7.80;99.90;;;;;;5053822;28;20029;-67
2023/12/21 09:31:30;;;;;;;0.38;0.10;;;7.90;99.90;;;;;;5055151;28;20021;-66
2023/12/21 09:33:56;;;;;;;0.47;0.03;;;8.00;99.90;;;;;;5053686;28;20033;-66
2023/12/21 09:36:21;;;;;;;0.10;0.00;;;8.00;99.90;;;;;;5052539;28;20048;-71
2023/12/21 09:38:48;;;;;;;0.28;0.00;;;8.10;99.90;;;;;;5053705;28;20071;-67
2023/12/21 09:41:13;;;;;;;2.35;0.00;;;8.10;99.90;;;;;;5054859;28;20112;-68
2023/12/21 09:43:42;;;;;;;0.95;0.10;;;8.00;99.90;;;;;;5055257;28;20529;-67
2023/12/21 09:46:08;;;;;;;;;;;8.00;99.90;;;;;;5055387;28;20025;-68
2023/12/21 09:48:37;;;;;;;2.33;0.05;;;8.00;99.90;;;;;;5054487;28;19911;-67
2023/12/21 09:51:04;;;;;;;;;;;8.00;99.90;;;;;;5055080;28;20082;-68
2023/12/21 09:53:31;;;;;;;0.00;0.00;;;8.00;99.90;;;;;;5052898;28;19966;-67
2023/12/21 09:55:59;;;;;;;0.80;0.10;;;8.00;99.90;;;;;;5054674;28;20040;-68
2023/12/21 09:58:25;;;;;;;0.00;0.00;;;8.00;99.90;;;;;;5054602;28;20062;-68
2023/12/21 10:00:51;;;;;;;0.10;0.10;;;8.10;99.90;;;;;;5054209;28;20159;-68
2023/12/21 10:03:16;;;;;;;0.13;0.00;;;8.10;99.90;;;;;;5054669;28;20028;-67
2023/12/21 10:05:42;;;;;;;1.30;0.00;;;8.20;99.90;;;;;;5054785;28;20029;-70
2023/12/21 10:08:09;;;;;;;0.20;0.00;;;8.20;99.90;;;;;;5054385;28;20544;-68
2023/12/21 10:10:37;;;;;;;1.77;0.00;;;8.20;99.90;;;;;;5054100;28;20029;-68
2023/12/21 10:13:03;;;;;;;0.88;0.20;;;8.30;99.90;;;;;;5052927;28;20040;-67
2023/12/21 10:15:32;;;;;;;0.65;0.10;;;8.30;99.90;;;;;;5054232;28;20127;-67
2023/12/21 10:17:58;;;;;;;0.00;0.00;;;8.30;99.90;;;;;;5053305;28;20427;-67
2023/12/21 10:20:26;;;;;;;0.00;0.00;;;8.30;99.90;;;;;;5052556;28;20024;-66
2023/12/21 10:22:51;;;;;;;0.10;0.00;;;8.40;99.90;;;;;;5053026;28;20040;-71
2023/12/21 10:25:18;;;;;;;0.00;0.00;;;8.40;99.90;;;;;;5053857;28;20025;-66
2023/12/21 10:27:54;;;;;;;0.08;0.00;;;8.50;99.90;;;;;;5053823;28;20054;-67
2023/12/21 10:30:22;;;;;;;0.08;0.08;;;8.50;99.90;;;;;;5054667;28;20032;-65
2023/12/21 10:32:57;;;;;;;0.35;0.10;;;8.60;99.90;;;;;;5054366;28;20033;-65
2023/12/21 10:35:23;;;;;;;0.47;0.10;;;8.60;99.90;;;;;;5054393;28;20040;-67
2023/12/21 10:37:49;;;;;;;0.17;0.00;;;8.60;99.90;;;;;;5054167;28;20029;-66
2023/12/21 10:40:15;;;;;;;0.32;0.10;;;8.70;99.90;;;;;;5053992;28;20021;-66
2023/12/21 10:42:49;;;;;;;0.55;0.00;;;8.70;99.90;;;;;;5054129;28;20491;-65
2023/12/21 10:45:21;;;;;;;0.30;0.10;;;8.80;99.90;;;;;;5052451;28;20029;-65
2023/12/21 10:48:00;;;;;;;0.60;0.17;;;8.80;99.90;;;;;;5052684;28;20461;-65
2023/12/21 10:50:28;;;;;;;0.80;0.40;;;8.80;99.90;;;;;;5053975;28;20105;-65
2023/12/21 10:52:55;;;;;;;1.73;0.38;;;8.90;99.90;;;;;;5053480;28;20484;-65
2023/12/21 10:55:22;;;;;;;0.85;0.45;;;8.90;99.90;;;;;;5053684;28;20029;-66
2023/12/21 10:57:51;;;;;;;0.10;0.00;;;8.90;99.90;;;;;;5053851;28;20025;-65
2023/12/21 11:00:17;;;;;;;;;;;9.00;99.90;;;;;;5052808;28;20526;-65
2023/12/21 11:02:46;;;;;;;0.28;0.00;;;9.00;99.90;;;;;;5053349;28;19908;-66
2023/12/21 11:05:22;;;;;;;0.10;0.10;;;9.10;99.90;;;;;;5053560;28;20017;-65
2023/12/21 11:07:49;;;;;;;0.25;0.25;;;9.10;99.90;;;;;;5052597;28;20022;-66
2023/12/21 11:10:21;;;;;;;0.00;0.00;;;9.10;99.90;;;;;;5053939;28;20057;-66
2023/12/21 11:12:47;;;;;;;0.55;0.08;;;9.20;99.90;;;;;;5053614;28;20124;-65
2023/12/21 11:15:18;;;;;;;0.15;0.00;;;9.20;99.90;;;;;;5053516;28;20068;-65
2023/12/21 11:17:52;;;;;;;1.08;0.00;;;9.40;99.90;;;;;;5053743;28;20017;-65
2023/12/21 11:20:21;;;;;;;0.00;0.00;;;9.50;99.90;;;;;;5052241;28;20029;-65
2023/12/21 11:22:47;;;;;;;0.00;0.00;;;9.50;99.90;;;;;;5052211;28;20119;-65
2023/12/21 11:25:13;;;;;;;0.05;0.00;;;9.60;99.90;;;;;;5053435;28;20115;-65
2023/12/21 11:27:42;;;;;;;0.43;0.10;;;9.50;99.90;;;;;;5053625;28;20029;-65
2023/12/21 11:30:12;;;;;;;0.15;0.10;;;9.50;99.90;;;;;;5053409;28;20036;-65
2023/12/21 11:32:42;;;;;;;1.45;0.10;;;9.50;99.90;;;;;;5053324;28;20045;-65
2023/12/21 11:35:21;;;;;;;0.30;0.00;;;9.60;99.90;;;;;;5053326;28;20025;-65
2023/12/21 11:37:54;;;;;;;1.88;0.20;;;9.60;99.90;;;;;;5053396;28;20112;-65
2023/12/21 11:40:21;;;;;;;0.10;0.05;;;9.50;99.90;;;;;;5053323;28;20065;-65
2023/12/21 11:42:49;;;;;;;0.20;0.00;;;9.50;99.90;;;;;;5053245;28;20488;-65
2023/12/21 11:45:23;;;;;;;0.80;0.10;;;9.50;99.90;;;;;;5053235;28;20032;-65
2023/12/21 11:47:50;;;;;;;0.13;0.00;;;9.50;99.90;;;;;;5053616;28;20028;-65
2023/12/21 11:50:19;;;;;;;0.90;0.10;;;9.50;99.90;;;;;;5053128;28;20028;-66
2023/12/21 11:52:45;;;;;;;0.17;0.00;;;9.40;99.90;;;;;;5051857;28;20102;-65
2023/12/21 11:55:11;;;;;;;0.10;0.00;;;9.50;99.90;;;;;;5053159;28;20025;-65
2023/12/21 11:57:40;;;;;;;0.52;0.08;;;9.50;99.90;;;;;;5052074;28;20032;-65
2023/12/21 12:00:07;;;;;;;0.10;0.00;;;9.40;99.90;;;;;;5053336;28;20447;-65
2023/12/21 12:02:34;;;;;;;0.25;0.00;;;9.40;99.90;;;;;;5056736;28;20033;-65
2023/12/21 12:05:02;;;;;;;0.70;0.00;;;9.40;99.90;;;;;;5056698;28;20056;-65
2023/12/21 12:07:30;;;;;;;0.73;0.10;;;9.40;99.90;;;;;;5056038;28;20461;-65
2023/12/21 12:09:55;;;;;;;0.65;0.05;;;9.40;99.90;;;;;;5055502;28;20032;-66
2023/12/21 12:12:21;;;;;;;2.53;0.08;;;9.40;99.90;;;;;;5055467;28;20033;-65
2023/12/21 12:14:47;;;;;;;1.98;0.20;;;9.40;99.90;;;;;;5055330;28;20372;-65
2023/12/21 12:17:13;;;;;;;0.20;0.05;;;9.40;99.90;;;;;;5056661;28;20116;-65
2023/12/21 12:19:38;;;;;;;2.95;0.03;;;9.50;99.90;;;;;;5055722;28;20029;-65
2023/12/21 12:22:04;;;;;;;0.40;0.00;;;9.50;99.90;;;;;;5055128;28;20036;-65
2023/12/21 12:24:30;;;;;;;0.30;0.30;;;9.50;99.90;;;;;;5056735;28;20032;-65
2023/12/21 12:26:56;;;;;;;0.30;0.10;;;9.60;99.90;;;;;;5056022;28;20062;-65
2023/12/21 12:29:22;;;;;;;0.30;0.20;;;9.70;99.90;;;;;;5055178;28;20116;-65
2023/12/21 12:31:48;;;;;;;0.10;0.10;;;9.70;99.90;;;;;;5056056;28;20112;-65
2023/12/21 12:34:15;;;;;;;0.88;0.20;;;9.80;99.90;;;;;;5054938;28;20036;-65
2023/12/21 12:36:41;;;;;;;0.10;0.10;;;9.70;99.90;;;;;;5056090;28;20048;-66
2023/12/21 12:39:10;;;;;;;1.05;0.00;;;9.80;99.90;;;;;;5056108;28;20076;-65
2023/12/21 12:41:35;;;;;;;1.90;0.10;;;9.80;99.90;;;;;;5055938;28;20017;-65
2023/12/21 12:44:01;;;;;;;1.75;0.10;;;9.70;99.90;;;;;;5055718;28;20104;-65
2023/12/21 12:46:28;;;;;;;0.00;0.00;;;9.70;99.90;;;;;;5055698;28;20478;-65
2023/12/21 12:48:54;;;;;;;0.50;0.20;;;9.80;99.90;;;;;;5055870;28;20021;-65
2023/12/21 12:51:22;;;;;;;0.08;0.00;;;9.80;99.90;;;;;;5055647;28;20082;-65
2023/12/21 12:53:47;;;;;;;0.55;0.10;;;9.80;99.90;;;;;;5054880;28;20388;-65